sensor_id;sensor_type;location;lat;lon;timestamp;P1;durP1;ratioP1;P2;durP2;ratioP2
28427;SDS011;15662;49.128;8.520;2023-02-02T00:01:54;9.85;;;2.35;;
28427;SDS011;15662;49.128;8.520;2023-02-02T00:04:24;6.55;;;2.20;;
28427;SDS011;15662;49.128;8.520;2023-02-02T00:06:55;11.05;;;2.63;;
28427;SDS011;15662;49.128;8.520;2023-02-02T00:09:25;7.50;;;1.98;;
28427;SDS011;15662;49.128;8.520;2023-02-02T00:14:24;11.85;;;2.65;;
28427;SDS011;15662;49.128;8.520;2023-02-02T00:16:53;12.90;;;2.50;;
28427;SDS011;15662;49.128;8.520;2023-02-02T00:19:27;11.40;;;2.20;;
28427;SDS011;15662;49.128;8.520;2023-02-02T00:21:56;9.77;;;2.63;;
28427;SDS011;15662;49.128;8.520;2023-02-02T00:24:24;8.45;;;2.47;;
28427;SDS011;15662;49.128;8.520;2023-02-02T00:26:56;8.55;;;2.60;;
28427;SDS011;15662;49.128;8.520;2023-02-02T00:29:27;8.32;;;2.50;;
28427;SDS011;15662;49.128;8.520;2023-02-02T00:31:56;12.45;;;2.05;;
28427;SDS011;15662;49.128;8.520;2023-02-02T00:34:24;10.63;;;2.40;;
28427;SDS011;15662;49.128;8.520;2023-02-02T00:36:52;13.10;;;2.33;;
28427;SDS011;15662;49.128;8.520;2023-02-02T00:39:22;10.57;;;2.15;;
28427;SDS011;15662;49.128;8.520;2023-02-02T00:41:52;11.45;;;2.80;;
28427;SDS011;15662;49.128;8.520;2023-02-02T00:44:20;9.18;;;2.47;;
28427;SDS011;15662;49.128;8.520;2023-02-02T00:47:06;9.95;;;2.50;;
28427;SDS011;15662;49.128;8.520;2023-02-02T00:49:34;7.40;;;2.42;;
28427;SDS011;15662;49.128;8.520;2023-02-02T00:52:05;9.15;;;2.70;;
28427;SDS011;15662;49.128;8.520;2023-02-02T00:54:33;9.50;;;2.53;;
28427;SDS011;15662;49.128;8.520;2023-02-02T00:57:01;9.57;;;2.47;;
28427;SDS011;15662;49.128;8.520;2023-02-02T00:59:30;10.63;;;2.13;;
28427;SDS011;15662;49.128;8.520;2023-02-02T01:01:59;8.00;;;2.17;;
28427;SDS011;15662;49.128;8.520;2023-02-02T01:04:27;8.50;;;2.22;;
28427;SDS011;15662;49.128;8.520;2023-02-02T01:06:56;8.45;;;2.45;;
28427;SDS011;15662;49.128;8.520;2023-02-02T01:09:24;9.25;;;2.28;;
28427;SDS011;15662;49.128;8.520;2023-02-02T01:11:52;9.15;;;2.55;;
28427;SDS011;15662;49.128;8.520;2023-02-02T01:14:20;13.60;;;2.80;;
28427;SDS011;15662;49.128;8.520;2023-02-02T01:16:48;7.88;;;2.70;;
28427;SDS011;15662;49.128;8.520;2023-02-02T01:19:16;7.72;;;2.20;;
28427;SDS011;15662;49.128;8.520;2023-02-02T01:21:44;10.52;;;2.35;;
28427;SDS011;15662;49.128;8.520;2023-02-02T01:24:13;7.20;;;2.50;;
28427;SDS011;15662;49.128;8.520;2023-02-02T01:26:40;9.95;;;2.38;;
28427;SDS011;15662;49.128;8.520;2023-02-02T01:29:08;9.32;;;2.60;;
28427;SDS011;15662;49.128;8.520;2023-02-02T01:31:36;12.88;;;2.63;;
28427;SDS011;15662;49.128;8.520;2023-02-02T01:34:04;7.88;;;2.28;;
28427;SDS011;15662;49.128;8.520;2023-02-02T01:36:33;12.50;;;2.47;;
28427;SDS011;15662;49.128;8.520;2023-02-02T01:39:01;10.35;;;2.65;;
28427;SDS011;15662;49.128;8.520;2023-02-02T01:41:29;8.18;;;2.83;;
28427;SDS011;15662;49.128;8.520;2023-02-02T01:43:58;10.95;;;2.53;;
28427;SDS011;15662;49.128;8.520;2023-02-02T01:46:33;11.15;;;2.50;;
28427;SDS011;15662;49.128;8.520;2023-02-02T01:49:07;8.18;;;2.30;;
28427;SDS011;15662;49.128;8.520;2023-02-02T01:51:42;7.47;;;2.25;;
28427;SDS011;15662;49.128;8.520;2023-02-02T01:54:23;7.82;;;2.00;;
28427;SDS011;15662;49.128;8.520;2023-02-02T01:57:07;7.43;;;2.40;;
28427;SDS011;15662;49.128;8.520;2023-02-02T01:59:42;9.32;;;2.40;;
28427;SDS011;15662;49.128;8.520;2023-02-02T02:02:13;7.15;;;2.17;;
28427;SDS011;15662;49.128;8.520;2023-02-02T02:04:42;9.63;;;2.15;;
28427;SDS011;15662;49.128;8.520;2023-02-02T02:07:10;7.00;;;2.30;;
28427;SDS011;15662;49.128;8.520;2023-02-02T02:09:39;12.30;;;2.78;;
28427;SDS011;15662;49.128;8.520;2023-02-02T02:12:11;10.10;;;2.50;;
28427;SDS011;15662;49.128;8.520;2023-02-02T02:14:45;8.27;;;2.20;;
28427;SDS011;15662;49.128;8.520;2023-02-02T02:20:55;10.07;;;2.67;;
28427;SDS011;15662;49.128;8.520;2023-02-02T02:24:10;7.45;;;2.22;;
28427;SDS011;15662;49.128;8.520;2023-02-02T02:39:31;6.65;;;2.20;;
28427;SDS011;15662;49.128;8.520;2023-02-02T02:42:29;9.48;;;2.30;;
28427;SDS011;15662;49.128;8.520;2023-02-02T02:45:03;9.15;;;2.50;;
28427;SDS011;15662;49.128;8.520;2023-02-02T02:47:33;10.30;;;2.10;;
28427;SDS011;15662;49.128;8.520;2023-02-02T02:50:23;11.93;;;2.33;;
28427;SDS011;15662;49.128;8.520;2023-02-02T02:52:55;10.60;;;2.42;;
28427;SDS011;15662;49.128;8.520;2023-02-02T02:55:35;11.50;;;2.50;;
28427;SDS011;15662;49.128;8.520;2023-02-02T02:58:40;9.30;;;2.75;;
28427;SDS011;15662;49.128;8.520;2023-02-02T03:01:36;9.85;;;2.33;;
28427;SDS011;15662;49.128;8.520;2023-02-02T03:04:34;9.25;;;2.45;;
28427;SDS011;15662;49.128;8.520;2023-02-02T03:07:16;11.48;;;2.65;;
28427;SDS011;15662;49.128;8.520;2023-02-02T03:10:04;11.57;;;2.67;;
28427;SDS011;15662;49.128;8.520;2023-02-02T03:12:41;9.38;;;2.22;;
28427;SDS011;15662;49.128;8.520;2023-02-02T03:15:14;8.65;;;2.30;;
28427;SDS011;15662;49.128;8.520;2023-02-02T03:17:43;9.65;;;2.40;;
28427;SDS011;15662;49.128;8.520;2023-02-02T03:20:14;7.53;;;1.63;;
28427;SDS011;15662;49.128;8.520;2023-02-02T03:22:42;10.15;;;2.60;;
28427;SDS011;15662;49.128;8.520;2023-02-02T03:25:11;10.13;;;2.70;;
28427;SDS011;15662;49.128;8.520;2023-02-02T03:27:39;8.75;;;2.50;;
28427;SDS011;15662;49.128;8.520;2023-02-02T03:30:08;10.50;;;2.30;;
28427;SDS011;15662;49.128;8.520;2023-02-02T03:32:38;11.00;;;2.45;;
28427;SDS011;15662;49.128;8.520;2023-02-02T03:35:07;9.18;;;2.38;;
28427;SDS011;15662;49.128;8.520;2023-02-02T03:37:36;9.90;;;2.25;;
28427;SDS011;15662;49.128;8.520;2023-02-02T03:40:04;10.02;;;2.40;;
28427;SDS011;15662;49.128;8.520;2023-02-02T03:42:33;8.77;;;2.30;;
28427;SDS011;15662;49.128;8.520;2023-02-02T03:45:01;7.03;;;2.40;;
28427;SDS011;15662;49.128;8.520;2023-02-02T03:47:29;7.75;;;2.17;;
28427;SDS011;15662;49.128;8.520;2023-02-02T03:49:57;9.68;;;2.60;;
28427;SDS011;15662;49.128;8.520;2023-02-02T03:52:25;11.90;;;2.50;;
28427;SDS011;15662;49.128;8.520;2023-02-02T03:54:53;7.97;;;2.67;;
28427;SDS011;15662;49.128;8.520;2023-02-02T03:57:21;6.70;;;2.13;;
28427;SDS011;15662;49.128;8.520;2023-02-02T03:59:49;7.18;;;2.28;;
28427;SDS011;15662;49.128;8.520;2023-02-02T04:02:16;12.18;;;2.40;;
28427;SDS011;15662;49.128;8.520;2023-02-02T04:04:44;9.38;;;2.30;;
28427;SDS011;15662;49.128;8.520;2023-02-02T04:07:12;9.82;;;2.20;;
28427;SDS011;15662;49.128;8.520;2023-02-02T04:09:41;11.43;;;2.22;;
28427;SDS011;15662;49.128;8.520;2023-02-02T04:12:08;8.82;;;2.13;;
28427;SDS011;15662;49.128;8.520;2023-02-02T04:14:36;12.02;;;2.53;;
28427;SDS011;15662;49.128;8.520;2023-02-02T04:17:04;10.20;;;2.22;;
28427;SDS011;15662;49.128;8.520;2023-02-02T04:19:32;11.35;;;2.63;;
28427;SDS011;15662;49.128;8.520;2023-02-02T04:22:00;8.60;;;2.70;;
28427;SDS011;15662;49.128;8.520;2023-02-02T04:24:27;6.50;;;2.22;;
28427;SDS011;15662;49.128;8.520;2023-02-02T04:26:55;8.70;;;2.38;;
28427;SDS011;15662;49.128;8.520;2023-02-02T04:29:23;7.82;;;2.50;;
28427;SDS011;15662;49.128;8.520;2023-02-02T04:31:52;10.27;;;2.38;;
28427;SDS011;15662;49.128;8.520;2023-02-02T04:34:21;8.88;;;2.70;;
28427;SDS011;15662;49.128;8.520;2023-02-02T04:36:48;10.80;;;2.72;;
28427;SDS011;15662;49.128;8.520;2023-02-02T04:39:16;11.50;;;2.40;;
28427;SDS011;15662;49.128;8.520;2023-02-02T04:41:44;8.15;;;2.30;;
28427;SDS011;15662;49.128;8.520;2023-02-02T04:44:13;9.10;;;2.63;;
28427;SDS011;15662;49.128;8.520;2023-02-02T04:46:42;9.00;;;2.25;;
28427;SDS011;15662;49.128;8.520;2023-02-02T04:49:11;9.93;;;2.60;;
28427;SDS011;15662;49.128;8.520;2023-02-02T04:51:39;7.68;;;2.40;;
28427;SDS011;15662;49.128;8.520;2023-02-02T04:54:07;13.90;;;2.63;;
28427;SDS011;15662;49.128;8.520;2023-02-02T04:56:35;7.00;;;2.42;;
28427;SDS011;15662;49.128;8.520;2023-02-02T04:59:03;8.27;;;2.40;;
28427;SDS011;15662;49.128;8.520;2023-02-02T05:01:31;9.15;;;2.22;;
28427;SDS011;15662;49.128;8.520;2023-02-02T05:03:58;15.45;;;2.78;;
28427;SDS011;15662;49.128;8.520;2023-02-02T05:06:26;9.70;;;2.33;;
28427;SDS011;15662;49.128;8.520;2023-02-02T05:08:54;10.88;;;2.47;;
28427;SDS011;15662;49.128;8.520;2023-02-02T05:11:22;12.85;;;2.72;;
28427;SDS011;15662;49.128;8.520;2023-02-02T05:13:51;8.75;;;2.50;;
28427;SDS011;15662;49.128;8.520;2023-02-02T05:16:21;9.70;;;2.47;;
28427;SDS011;15662;49.128;8.520;2023-02-02T05:18:50;7.53;;;2.30;;
28427;SDS011;15662;49.128;8.520;2023-02-02T05:21:20;11.47;;;2.77;;
28427;SDS011;15662;49.128;8.520;2023-02-02T05:23:49;6.72;;;2.17;;
28427;SDS011;15662;49.128;8.520;2023-02-02T05:26:21;11.85;;;2.40;;
28427;SDS011;15662;49.128;8.520;2023-02-02T05:28:52;8.88;;;2.30;;
28427;SDS011;15662;49.128;8.520;2023-02-02T05:31:20;15.35;;;2.80;;
28427;SDS011;15662;49.128;8.520;2023-02-02T05:33:48;11.88;;;2.47;;
28427;SDS011;15662;49.128;8.520;2023-02-02T05:36:16;8.45;;;2.63;;
28427;SDS011;15662;49.128;8.520;2023-02-02T05:38:44;11.57;;;2.80;;
28427;SDS011;15662;49.128;8.520;2023-02-02T05:41:12;10.98;;;2.30;;
28427;SDS011;15662;49.128;8.520;2023-02-02T05:43:40;13.38;;;2.70;;
28427;SDS011;15662;49.128;8.520;2023-02-02T05:46:08;10.45;;;2.75;;
28427;SDS011;15662;49.128;8.520;2023-02-02T05:48:36;9.43;;;2.75;;
28427;SDS011;15662;49.128;8.520;2023-02-02T05:51:09;10.13;;;2.53;;
28427;SDS011;15662;49.128;8.520;2023-02-02T05:53:41;13.68;;;2.42;;
28427;SDS011;15662;49.128;8.520;2023-02-02T05:56:11;7.90;;;2.55;;
28427;SDS011;15662;49.128;8.520;2023-02-02T05:58:41;12.00;;;2.75;;
28427;SDS011;15662;49.128;8.520;2023-02-02T06:01:10;12.43;;;2.75;;
28427;SDS011;15662;49.128;8.520;2023-02-02T06:03:38;11.43;;;2.45;;
28427;SDS011;15662;49.128;8.520;2023-02-02T06:06:06;9.70;;;2.70;;
28427;SDS011;15662;49.128;8.520;2023-02-02T06:08:34;8.10;;;2.50;;
28427;SDS011;15662;49.128;8.520;2023-02-02T06:11:12;8.07;;;2.10;;
28427;SDS011;15662;49.128;8.520;2023-02-02T06:13:43;11.88;;;2.75;;
28427;SDS011;15662;49.128;8.520;2023-02-02T06:16:12;8.10;;;2.40;;
28427;SDS011;15662;49.128;8.520;2023-02-02T06:18:40;11.77;;;2.65;;
28427;SDS011;15662;49.128;8.520;2023-02-02T06:21:08;12.05;;;2.47;;
28427;SDS011;15662;49.128;8.520;2023-02-02T06:23:37;10.32;;;3.30;;
28427;SDS011;15662;49.128;8.520;2023-02-02T06:26:05;10.48;;;3.15;;
28427;SDS011;15662;49.128;8.520;2023-02-02T06:28:34;14.95;;;2.88;;
28427;SDS011;15662;49.128;8.520;2023-02-02T06:31:02;10.40;;;2.58;;
28427;SDS011;15662;49.128;8.520;2023-02-02T06:33:35;10.57;;;2.67;;
28427;SDS011;15662;49.128;8.520;2023-02-02T06:36:04;13.50;;;3.08;;
28427;SDS011;15662;49.128;8.520;2023-02-02T06:38:33;10.32;;;2.88;;
28427;SDS011;15662;49.128;8.520;2023-02-02T06:41:01;12.50;;;3.15;;
28427;SDS011;15662;49.128;8.520;2023-02-02T06:43:29;16.00;;;2.90;;
28427;SDS011;15662;49.128;8.520;2023-02-02T06:45:58;12.50;;;2.58;;
28427;SDS011;15662;49.128;8.520;2023-02-02T06:48:26;9.07;;;2.60;;
28427;SDS011;15662;49.128;8.520;2023-02-02T06:50:56;13.70;;;2.90;;
28427;SDS011;15662;49.128;8.520;2023-02-02T06:53:25;9.15;;;2.65;;
28427;SDS011;15662;49.128;8.520;2023-02-02T06:56:04;11.15;;;2.45;;
28427;SDS011;15662;49.128;8.520;2023-02-02T06:58:34;10.02;;;2.53;;
28427;SDS011;15662;49.128;8.520;2023-02-02T07:01:09;7.90;;;2.60;;
28427;SDS011;15662;49.128;8.520;2023-02-02T07:03:39;12.05;;;2.95;;
28427;SDS011;15662;49.128;8.520;2023-02-02T07:06:26;13.68;;;3.00;;
28427;SDS011;15662;49.128;8.520;2023-02-02T07:08:55;12.15;;;2.67;;
28427;SDS011;15662;49.128;8.520;2023-02-02T07:11:31;12.02;;;2.65;;
28427;SDS011;15662;49.128;8.520;2023-02-02T07:14:11;10.70;;;2.45;;
28427;SDS011;15662;49.128;8.520;2023-02-02T07:16:39;9.25;;;2.72;;
28427;SDS011;15662;49.128;8.520;2023-02-02T07:19:07;10.23;;;2.55;;
28427;SDS011;15662;49.128;8.520;2023-02-02T07:21:35;11.35;;;2.47;;
28427;SDS011;15662;49.128;8.520;2023-02-02T07:24:03;14.43;;;2.50;;
28427;SDS011;15662;49.128;8.520;2023-02-02T07:26:33;8.30;;;2.65;;
28427;SDS011;15662;49.128;8.520;2023-02-02T07:29:02;16.35;;;3.00;;
28427;SDS011;15662;49.128;8.520;2023-02-02T07:31:31;14.05;;;3.00;;
28427;SDS011;15662;49.128;8.520;2023-02-02T07:34:02;11.38;;;3.33;;
28427;SDS011;15662;49.128;8.520;2023-02-02T07:36:31;9.15;;;2.53;;
28427;SDS011;15662;49.128;8.520;2023-02-02T07:38:58;9.73;;;2.75;;
28427;SDS011;15662;49.128;8.520;2023-02-02T07:41:30;11.23;;;2.35;;
28427;SDS011;15662;49.128;8.520;2023-02-02T07:44:01;10.48;;;2.53;;
28427;SDS011;15662;49.128;8.520;2023-02-02T07:46:32;9.85;;;2.42;;
28427;SDS011;15662;49.128;8.520;2023-02-02T07:49:01;13.40;;;2.95;;
28427;SDS011;15662;49.128;8.520;2023-02-02T07:51:29;9.68;;;2.92;;
28427;SDS011;15662;49.128;8.520;2023-02-02T07:53:57;12.20;;;3.70;;
28427;SDS011;15662;49.128;8.520;2023-02-02T07:56:26;11.25;;;2.88;;
28427;SDS011;15662;49.128;8.520;2023-02-02T07:58:55;8.43;;;2.60;;
28427;SDS011;15662;49.128;8.520;2023-02-02T08:01:24;11.95;;;3.05;;
28427;SDS011;15662;49.128;8.520;2023-02-02T08:03:55;15.73;;;3.63;;
28427;SDS011;15662;49.128;8.520;2023-02-02T08:06:29;9.23;;;2.83;;
28427;SDS011;15662;49.128;8.520;2023-02-02T08:09:01;14.13;;;3.28;;
28427;SDS011;15662;49.128;8.520;2023-02-02T08:11:32;17.27;;;3.30;;
28427;SDS011;15662;49.128;8.520;2023-02-02T08:14:02;12.98;;;3.58;;
28427;SDS011;15662;49.128;8.520;2023-02-02T08:16:32;13.00;;;3.22;;
28427;SDS011;15662;49.128;8.520;2023-02-02T08:19:02;15.38;;;2.97;;
28427;SDS011;15662;49.128;8.520;2023-02-02T08:21:33;12.52;;;3.00;;
28427;SDS011;15662;49.128;8.520;2023-02-02T08:24:02;12.45;;;3.05;;
28427;SDS011;15662;49.128;8.520;2023-02-02T08:26:31;14.02;;;2.67;;
28427;SDS011;15662;49.128;8.520;2023-02-02T08:29:00;10.27;;;3.00;;
28427;SDS011;15662;49.128;8.520;2023-02-02T08:31:34;9.80;;;2.92;;
28427;SDS011;15662;49.128;8.520;2023-02-02T08:34:09;10.93;;;3.28;;
28427;SDS011;15662;49.128;8.520;2023-02-02T08:36:40;10.60;;;2.97;;
28427;SDS011;15662;49.128;8.520;2023-02-02T08:39:10;12.52;;;3.10;;
28427;SDS011;15662;49.128;8.520;2023-02-02T08:41:39;7.97;;;2.53;;
28427;SDS011;15662;49.128;8.520;2023-02-02T08:44:07;11.43;;;2.50;;
28427;SDS011;15662;49.128;8.520;2023-02-02T08:46:37;11.32;;;3.00;;
28427;SDS011;15662;49.128;8.520;2023-02-02T08:49:27;10.20;;;2.78;;
28427;SDS011;15662;49.128;8.520;2023-02-02T08:51:55;10.80;;;2.70;;
28427;SDS011;15662;49.128;8.520;2023-02-02T08:54:23;12.70;;;3.08;;
28427;SDS011;15662;49.128;8.520;2023-02-02T08:56:51;9.32;;;2.72;;
28427;SDS011;15662;49.128;8.520;2023-02-02T08:59:19;9.23;;;2.92;;
28427;SDS011;15662;49.128;8.520;2023-02-02T09:01:47;10.18;;;2.50;;
28427;SDS011;15662;49.128;8.520;2023-02-02T09:04:15;8.35;;;2.55;;
28427;SDS011;15662;49.128;8.520;2023-02-02T09:06:43;11.05;;;2.65;;
28427;SDS011;15662;49.128;8.520;2023-02-02T09:09:12;9.43;;;2.83;;
28427;SDS011;15662;49.128;8.520;2023-02-02T09:11:42;14.50;;;3.40;;
28427;SDS011;15662;49.128;8.520;2023-02-02T09:14:10;13.30;;;2.83;;
28427;SDS011;15662;49.128;8.520;2023-02-02T09:16:40;11.27;;;2.65;;
28427;SDS011;15662;49.128;8.520;2023-02-02T09:19:09;13.52;;;3.00;;
28427;SDS011;15662;49.128;8.520;2023-02-02T09:21:37;10.93;;;3.10;;
28427;SDS011;15662;49.128;8.520;2023-02-02T09:24:07;11.93;;;3.20;;
28427;SDS011;15662;49.128;8.520;2023-02-02T09:26:37;11.23;;;2.92;;
28427;SDS011;15662;49.128;8.520;2023-02-02T09:29:07;13.05;;;2.95;;
28427;SDS011;15662;49.128;8.520;2023-02-02T09:31:38;11.43;;;2.83;;
28427;SDS011;15662;49.128;8.520;2023-02-02T09:34:07;7.90;;;2.38;;
28427;SDS011;15662;49.128;8.520;2023-02-02T09:39:06;15.00;;;2.78;;
28427;SDS011;15662;49.128;8.520;2023-02-02T09:52:48;13.45;;;2.92;;
28427;SDS011;15662;49.128;8.520;2023-02-02T09:55:50;8.63;;;2.85;;
28427;SDS011;15662;49.128;8.520;2023-02-02T09:58:44;12.90;;;2.90;;
28427;SDS011;15662;49.128;8.520;2023-02-02T10:06:54;9.85;;;2.80;;
28427;SDS011;15662;49.128;8.520;2023-02-02T10:15:14;13.13;;;2.95;;
28427;SDS011;15662;49.128;8.520;2023-02-02T10:20:56;11.52;;;4.20;;
28427;SDS011;15662;49.128;8.520;2023-02-02T10:34:48;14.80;;;3.17;;
28427;SDS011;15662;49.128;8.520;2023-02-02T10:46:30;11.68;;;3.00;;
28427;SDS011;15662;49.128;8.520;2023-02-02T10:51:40;10.85;;;3.58;;
28427;SDS011;15662;49.128;8.520;2023-02-02T10:54:45;14.07;;;3.50;;
28427;SDS011;15662;49.128;8.520;2023-02-02T11:03:21;9.43;;;2.30;;
28427;SDS011;15662;49.128;8.520;2023-02-02T11:05:53;9.07;;;2.40;;
28427;SDS011;15662;49.128;8.520;2023-02-02T11:08:44;7.63;;;2.38;;
28427;SDS011;15662;49.128;8.520;2023-02-02T11:11:25;11.75;;;3.13;;
28427;SDS011;15662;49.128;8.520;2023-02-02T11:13:59;7.85;;;2.30;;
28427;SDS011;15662;49.128;8.520;2023-02-02T11:16:34;7.18;;;2.00;;
28427;SDS011;15662;49.128;8.520;2023-02-02T11:19:20;7.82;;;2.00;;
28427;SDS011;15662;49.128;8.520;2023-02-02T11:21:55;7.22;;;1.90;;
28427;SDS011;15662;49.128;8.520;2023-02-02T11:24:29;7.53;;;2.15;;
28427;SDS011;15662;49.128;8.520;2023-02-02T11:27:06;8.68;;;2.35;;
28427;SDS011;15662;49.128;8.520;2023-02-02T11:29:42;6.07;;;2.00;;
28427;SDS011;15662;49.128;8.520;2023-02-02T11:37:31;5.55;;;1.90;;
28427;SDS011;15662;49.128;8.520;2023-02-02T11:40:18;15.77;;;2.80;;
28427;SDS011;15662;49.128;8.520;2023-02-02T11:43:27;6.53;;;2.22;;
28427;SDS011;15662;49.128;8.520;2023-02-02T11:46:03;8.77;;;2.20;;
28427;SDS011;15662;49.128;8.520;2023-02-02T11:48:35;7.07;;;1.92;;
28427;SDS011;15662;49.128;8.520;2023-02-02T11:51:05;7.95;;;1.92;;
28427;SDS011;15662;49.128;8.520;2023-02-02T11:53:45;4.60;;;1.50;;
28427;SDS011;15662;49.128;8.520;2023-02-02T11:56:24;6.30;;;1.70;;
28427;SDS011;15662;49.128;8.520;2023-02-02T11:58:56;6.82;;;1.80;;
28427;SDS011;15662;49.128;8.520;2023-02-02T12:01:26;15.30;;;1.98;;
28427;SDS011;15662;49.128;8.520;2023-02-02T12:04:01;7.38;;;1.70;;
28427;SDS011;15662;49.128;8.520;2023-02-02T12:06:49;6.93;;;1.52;;
28427;SDS011;15662;49.128;8.520;2023-02-02T12:09:20;7.95;;;2.10;;
28427;SDS011;15662;49.128;8.520;2023-02-02T12:14:49;7.00;;;1.77;;
28427;SDS011;15662;49.128;8.520;2023-02-02T12:17:38;7.53;;;1.88;;
28427;SDS011;15662;49.128;8.520;2023-02-02T12:20:17;4.70;;;1.50;;
28427;SDS011;15662;49.128;8.520;2023-02-02T12:38:15;6.95;;;1.75;;
28427;SDS011;15662;49.128;8.520;2023-02-02T12:44:06;4.85;;;1.70;;
28427;SDS011;15662;49.128;8.520;2023-02-02T12:52:41;7.57;;;1.92;;
28427;SDS011;15662;49.128;8.520;2023-02-02T13:02:35;6.10;;;1.67;;
28427;SDS011;15662;49.128;8.520;2023-02-02T13:05:38;5.55;;;1.50;;
28427;SDS011;15662;49.128;8.520;2023-02-02T13:11:06;5.72;;;1.42;;
28427;SDS011;15662;49.128;8.520;2023-02-02T13:13:57;5.05;;;1.50;;
28427;SDS011;15662;49.128;8.520;2023-02-02T13:16:43;4.43;;;1.58;;
28427;SDS011;15662;49.128;8.520;2023-02-02T13:19:22;5.55;;;1.65;;
28427;SDS011;15662;49.128;8.520;2023-02-02T13:22:00;4.25;;;1.70;;
28427;SDS011;15662;49.128;8.520;2023-02-02T13:24:33;5.88;;;1.30;;
28427;SDS011;15662;49.128;8.520;2023-02-02T13:27:06;4.25;;;1.52;;
28427;SDS011;15662;49.128;8.520;2023-02-02T13:29:42;5.82;;;1.80;;
28427;SDS011;15662;49.128;8.520;2023-02-02T13:32:25;8.20;;;1.90;;
28427;SDS011;15662;49.128;8.520;2023-02-02T13:35:12;5.72;;;1.70;;
28427;SDS011;15662;49.128;8.520;2023-02-02T13:38:22;4.05;;;1.58;;
28427;SDS011;15662;49.128;8.520;2023-02-02T13:40:53;4.25;;;1.58;;
28427;SDS011;15662;49.128;8.520;2023-02-02T13:43:33;4.43;;;1.73;;
28427;SDS011;15662;49.128;8.520;2023-02-02T14:00:24;5.70;;;1.75;;
28427;SDS011;15662;49.128;8.520;2023-02-02T14:03:04;8.40;;;1.77;;
28427;SDS011;15662;49.128;8.520;2023-02-02T14:06:12;8.23;;;2.17;;
28427;SDS011;15662;49.128;8.520;2023-02-02T14:11:38;8.10;;;2.10;;
28427;SDS011;15662;49.128;8.520;2023-02-02T14:14:20;9.70;;;2.38;;
28427;SDS011;15662;49.128;8.520;2023-02-02T14:17:00;5.35;;;1.80;;
28427;SDS011;15662;49.128;8.520;2023-02-02T14:22:01;6.75;;;2.03;;
28427;SDS011;15662;49.128;8.520;2023-02-02T14:27:12;8.00;;;2.22;;
28427;SDS011;15662;49.128;8.520;2023-02-02T14:29:59;5.45;;;1.88;;
28427;SDS011;15662;49.128;8.520;2023-02-02T14:32:41;7.97;;;2.17;;
28427;SDS011;15662;49.128;8.520;2023-02-02T14:46:22;7.82;;;2.00;;
28427;SDS011;15662;49.128;8.520;2023-02-02T14:51:30;7.63;;;2.65;;
28427;SDS011;15662;49.128;8.520;2023-02-02T14:54:26;9.63;;;2.63;;
28427;SDS011;15662;49.128;8.520;2023-02-02T14:57:27;10.80;;;2.80;;
28427;SDS011;15662;49.128;8.520;2023-02-02T14:59:54;7.20;;;2.60;;
28427;SDS011;15662;49.128;8.520;2023-02-02T15:02:34;6.53;;;2.17;;
28427;SDS011;15662;49.128;8.520;2023-02-02T15:10:57;7.00;;;2.22;;
28427;SDS011;15662;49.128;8.520;2023-02-02T15:13:51;6.47;;;2.17;;
28427;SDS011;15662;49.128;8.520;2023-02-02T15:16:34;9.27;;;2.15;;
28427;SDS011;15662;49.128;8.520;2023-02-02T15:19:18;7.05;;;2.78;;
28427;SDS011;15662;49.128;8.520;2023-02-02T15:22:00;6.93;;;2.05;;
28427;SDS011;15662;49.128;8.520;2023-02-02T15:25:17;8.45;;;2.00;;
28427;SDS011;15662;49.128;8.520;2023-02-02T15:28:17;5.63;;;2.08;;
28427;SDS011;15662;49.128;8.520;2023-02-02T15:31:21;6.18;;;1.85;;
28427;SDS011;15662;49.128;8.520;2023-02-02T15:34:19;7.57;;;1.98;;
28427;SDS011;15662;49.128;8.520;2023-02-02T15:37:13;6.10;;;1.70;;
28427;SDS011;15662;49.128;8.520;2023-02-02T15:39:49;6.70;;;2.10;;
28427;SDS011;15662;49.128;8.520;2023-02-02T15:42:27;5.68;;;1.90;;
28427;SDS011;15662;49.128;8.520;2023-02-02T15:45:32;6.32;;;1.60;;
28427;SDS011;15662;49.128;8.520;2023-02-02T15:50:50;5.45;;;2.00;;
28427;SDS011;15662;49.128;8.520;2023-02-02T15:53:27;5.53;;;1.80;;
28427;SDS011;15662;49.128;8.520;2023-02-02T15:58:51;8.93;;;1.73;;
28427;SDS011;15662;49.128;8.520;2023-02-02T16:06:48;5.50;;;1.73;;
28427;SDS011;15662;49.128;8.520;2023-02-02T16:09:20;4.05;;;1.48;;
28427;SDS011;15662;49.128;8.520;2023-02-02T16:11:52;5.88;;;1.95;;
28427;SDS011;15662;49.128;8.520;2023-02-02T16:14:20;5.32;;;1.27;;
28427;SDS011;15662;49.128;8.520;2023-02-02T16:16:49;4.38;;;1.77;;
28427;SDS011;15662;49.128;8.520;2023-02-02T16:19:19;7.00;;;2.53;;
28427;SDS011;15662;49.128;8.520;2023-02-02T16:21:53;3.15;;;1.80;;
28427;SDS011;15662;49.128;8.520;2023-02-02T16:24:28;3.83;;;1.60;;
28427;SDS011;15662;49.128;8.520;2023-02-02T16:27:03;4.70;;;1.40;;
28427;SDS011;15662;49.128;8.520;2023-02-02T16:29:34;5.07;;;1.27;;
28427;SDS011;15662;49.128;8.520;2023-02-02T16:32:02;7.95;;;2.08;;
28427;SDS011;15662;49.128;8.520;2023-02-02T16:40:14;5.53;;;1.77;;
28427;SDS011;15662;49.128;8.520;2023-02-02T16:43:15;5.32;;;1.58;;
28427;SDS011;15662;49.128;8.520;2023-02-02T16:45:49;4.30;;;1.70;;
28427;SDS011;15662;49.128;8.520;2023-02-02T16:48:33;4.05;;;1.80;;
28427;SDS011;15662;49.128;8.520;2023-02-02T16:53:51;6.25;;;2.15;;
28427;SDS011;15662;49.128;8.520;2023-02-02T16:56:34;3.90;;;1.58;;
28427;SDS011;15662;49.128;8.520;2023-02-02T16:59:13;4.10;;;1.70;;
28427;SDS011;15662;49.128;8.520;2023-02-02T17:01:58;7.50;;;2.65;;
28427;SDS011;15662;49.128;8.520;2023-02-02T17:04:48;5.03;;;3.13;;
28427;SDS011;15662;49.128;8.520;2023-02-02T17:07:22;5.15;;;2.50;;
28427;SDS011;15662;49.128;8.520;2023-02-02T17:09:50;4.38;;;2.00;;
28427;SDS011;15662;49.128;8.520;2023-02-02T17:12:57;6.63;;;2.25;;
28427;SDS011;15662;49.128;8.520;2023-02-02T17:18:02;5.22;;;2.72;;
28427;SDS011;15662;49.128;8.520;2023-02-02T17:20:31;5.35;;;2.20;;
28427;SDS011;15662;49.128;8.520;2023-02-02T17:23:01;3.95;;;1.80;;
28427;SDS011;15662;49.128;8.520;2023-02-02T17:25:36;4.03;;;1.90;;
28427;SDS011;15662;49.128;8.520;2023-02-02T17:28:10;6.13;;;2.92;;
28427;SDS011;15662;49.128;8.520;2023-02-02T17:30:42;10.25;;;4.40;;
28427;SDS011;15662;49.128;8.520;2023-02-02T17:33:14;8.35;;;4.45;;
28427;SDS011;15662;49.128;8.520;2023-02-02T17:38:21;9.57;;;3.83;;
28427;SDS011;15662;49.128;8.520;2023-02-02T17:40:51;8.65;;;3.22;;
28427;SDS011;15662;49.128;8.520;2023-02-02T17:43:20;8.10;;;3.15;;
28427;SDS011;15662;49.128;8.520;2023-02-02T17:45:48;8.15;;;3.53;;
28427;SDS011;15662;49.128;8.520;2023-02-02T17:48:16;5.70;;;3.28;;
28427;SDS011;15662;49.128;8.520;2023-02-02T17:50:44;4.80;;;2.40;;
28427;SDS011;15662;49.128;8.520;2023-02-02T17:53:14;4.43;;;2.25;;
28427;SDS011;15662;49.128;8.520;2023-02-02T17:55:46;8.32;;;2.50;;
28427;SDS011;15662;49.128;8.520;2023-02-02T17:58:18;7.45;;;3.00;;
28427;SDS011;15662;49.128;8.520;2023-02-02T18:00:47;10.20;;;3.40;;
28427;SDS011;15662;49.128;8.520;2023-02-02T18:03:26;6.90;;;2.25;;
28427;SDS011;15662;49.128;8.520;2023-02-02T18:06:00;6.87;;;2.27;;
28427;SDS011;15662;49.128;8.520;2023-02-02T18:08:30;7.85;;;3.67;;
28427;SDS011;15662;49.128;8.520;2023-02-02T18:10:59;4.20;;;2.03;;
28427;SDS011;15662;49.128;8.520;2023-02-02T18:13:28;4.90;;;1.88;;
28427;SDS011;15662;49.128;8.520;2023-02-02T18:15:56;4.18;;;2.13;;
28427;SDS011;15662;49.128;8.520;2023-02-02T18:18:25;5.97;;;1.90;;
28427;SDS011;15662;49.128;8.520;2023-02-02T18:20:55;3.78;;;1.50;;
28427;SDS011;15662;49.128;8.520;2023-02-02T18:23:24;5.60;;;1.70;;
28427;SDS011;15662;49.128;8.520;2023-02-02T18:25:52;7.07;;;1.70;;
28427;SDS011;15662;49.128;8.520;2023-02-02T18:28:20;4.25;;;1.77;;